Time;durP1;ratioP1;P1;durP2;ratioP2;P2;SDS_P1;SDS_P2;PMS_P1;PMS_P2;Temp;Humidity;BMP_temperature;BMP_pressure;BME280_temperature;BME280_humidity;BME280_pressure;Samples;Min_cycle;Max_cycle;Signal;HPM_P1;HPM_P2
2023/09/09 00:01:29;;;;;;;18.30;13.63;;;19.30;99.90;;;;;;6214891;23;20087;-70
2023/09/09 00:03:56;;;;;;;18.23;13.57;;;19.30;99.90;;;;;;6242077;23;20024;-71
2023/09/09 00:06:22;;;;;;;22.35;16.35;;;19.30;99.90;;;;;;6214863;23;20020;-71
2023/09/09 00:08:48;;;;;;;19.90;15.77;;;19.20;99.90;;;;;;6215155;23;20012;-71
2023/09/09 00:11:13;;;;;;;23.08;16.88;;;19.20;99.90;;;;;;6241676;23;20857;-70
2023/09/09 00:13:39;;;;;;;20.90;15.90;;;19.20;99.90;;;;;;6241108;23;20016;-71
2023/09/09 00:16:06;;;;;;;18.13;13.55;;;19.10;99.90;;;;;;6241301;23;20020;-70
2023/09/09 00:18:32;;;;;;;18.48;14.05;;;19.10;99.90;;;;;;6214422;23;20051;-71
2023/09/09 00:20:58;;;;;;;17.77;12.57;;;19.00;99.90;;;;;;6214361;23;20020;-70
2023/09/09 00:23:23;;;;;;;16.17;11.38;;;19.00;99.90;;;;;;6241162;23;20024;-71
2023/09/09 00:25:50;;;;;;;13.15;10.70;;;19.00;99.90;;;;;;6241307;23;20016;-70
2023/09/09 00:28:15;;;;;;;11.35;9.00;;;18.90;99.90;;;;;;6240791;23;20070;-71
2023/09/09 00:30:42;;;;;;;8.77;7.10;;;18.90;99.90;;;;;;6241741;23;20099;-70
2023/09/09 00:33:08;;;;;;;10.43;8.40;;;18.90;99.90;;;;;;6241258;23;20019;-71
2023/09/09 00:35:34;;;;;;;12.07;7.88;;;18.80;99.90;;;;;;6241474;23;20812;-70
2023/09/09 00:38:00;;;;;;;9.95;7.82;;;18.90;99.90;;;;;;6214183;23;20020;-71
2023/09/09 00:40:26;;;;;;;8.70;7.45;;;18.90;99.90;;;;;;6241129;23;20018;-71
2023/09/09 00:42:52;;;;;;;11.68;8.88;;;18.90;99.90;;;;;;6188840;23;20056;-71
2023/09/09 00:45:17;;;;;;;11.45;8.82;;;18.90;99.90;;;;;;6214287;23;20024;-70
2023/09/09 00:47:44;;;;;;;10.85;8.35;;;18.80;99.90;;;;;;6214286;23;20020;-70
2023/09/09 00:50:13;;;;;;;12.70;8.57;;;18.80;99.90;;;;;;6241506;23;20037;-71
2023/09/09 00:52:40;;;;;;;9.68;7.80;;;18.90;99.90;;;;;;6241118;23;20016;-71
2023/09/09 00:55:06;;;;;;;10.70;8.35;;;18.80;99.90;;;;;;6214282;23;20459;-71
2023/09/09 00:57:33;;;;;;;12.82;8.57;;;18.80;99.90;;;;;;6240914;23;20664;-70
2023/09/09 01:00:00;;;;;;;10.73;8.63;;;18.80;99.90;;;;;;6241041;23;20016;-70
2023/09/09 01:02:26;;;;;;;13.02;9.43;;;18.70;99.90;;;;;;6241977;23;20012;-70
2023/09/09 01:04:52;;;;;;;10.50;8.27;;;18.70;99.90;;;;;;6243287;23;20022;-71
2023/09/09 01:07:18;;;;;;;14.00;10.10;;;18.70;99.90;;;;;;6243232;23;20027;-71
2023/09/09 01:09:43;;;;;;;14.10;10.57;;;18.70;99.90;;;;;;6191019;23;20024;-71
2023/09/09 01:12:11;;;;;;;13.18;10.77;;;18.70;99.90;;;;;;6243046;23;20024;-70
2023/09/09 01:14:40;;;;;;;12.52;10.27;;;18.70;99.90;;;;;;6216611;23;20016;-70
2023/09/09 01:17:07;;;;;;;13.85;10.43;;;18.60;99.90;;;;;;6242672;23;20024;-71
2023/09/09 01:19:34;;;;;;;12.98;10.30;;;18.60;99.90;;;;;;6242859;23;20070;-70
2023/09/09 01:22:06;;;;;;;12.18;10.02;;;18.50;99.90;;;;;;6242721;23;20019;-71
2023/09/09 01:24:33;;;;;;;11.80;9.57;;;18.60;99.90;;;;;;6215326;23;20020;-70
2023/09/09 01:26:58;;;;;;;11.77;9.85;;;18.60;99.90;;;;;;6216060;23;20027;-71
2023/09/09 01:29:24;;;;;;;12.95;8.95;;;18.60;99.90;;;;;;6242911;23;20020;-71
2023/09/09 01:31:50;;;;;;;12.38;9.35;;;18.60;99.90;;;;;;6243043;23;20019;-71
2023/09/09 01:34:15;;;;;;;10.45;8.95;;;18.60;99.90;;;;;;6215304;23;20031;-70
2023/09/09 01:36:41;;;;;;;11.43;8.98;;;18.50;99.90;;;;;;6242967;23;20098;-70
2023/09/09 01:39:07;;;;;;;13.70;10.02;;;18.50;99.90;;;;;;6215497;23;20436;-70
2023/09/09 01:41:33;;;;;;;10.20;8.45;;;18.50;99.90;;;;;;6242328;23;20605;-71
2023/09/09 01:43:58;;;;;;;12.45;8.77;;;18.50;99.90;;;;;;6242853;23;20059;-70
2023/09/09 01:46:24;;;;;;;13.80;11.40;;;18.50;99.90;;;;;;6242391;23;20028;-70
2023/09/09 01:48:50;;;;;;;12.50;10.30;;;18.40;99.90;;;;;;6215584;23;20024;-71
2023/09/09 01:51:16;;;;;;;14.32;11.45;;;18.40;99.90;;;;;;6215363;23;20024;-70
2023/09/09 01:53:41;;;;;;;14.20;11.80;;;18.40;99.90;;;;;;6242771;23;20094;-71
2023/09/09 01:56:07;;;;;;;14.05;11.18;;;18.30;99.90;;;;;;6242635;23;20483;-70
2023/09/09 01:58:33;;;;;;;14.85;10.88;;;18.30;99.90;;;;;;6242585;23;20024;-70
2023/09/09 02:00:58;;;;;;;13.80;11.05;;;18.30;99.90;;;;;;6215479;23;20099;-70
2023/09/09 02:03:25;;;;;;;12.45;9.98;;;18.30;99.90;;;;;;6215613;23;20087;-70
2023/09/09 02:05:51;;;;;;;12.43;9.88;;;18.30;99.90;;;;;;6215323;23;20408;-70
2023/09/09 02:08:17;;;;;;;11.63;10.20;;;18.20;99.90;;;;;;6214918;23;20028;-70
2023/09/09 02:10:42;;;;;;;14.10;11.05;;;18.30;99.90;;;;;;6242571;23;20038;-70
2023/09/09 02:13:08;;;;;;;15.73;11.50;;;18.20;99.90;;;;;;6242427;23;20008;-71
2023/09/09 02:15:34;;;;;;;17.85;11.73;;;18.20;99.90;;;;;;6242117;23;20051;-70
2023/09/09 02:18:00;;;;;;;16.60;11.23;;;18.20;99.90;;;;;;6242697;23;20024;-71
2023/09/09 02:20:25;;;;;;;13.80;11.13;;;18.20;99.90;;;;;;6242889;23;20337;-70
2023/09/09 02:22:51;;;;;;;13.32;10.40;;;18.20;99.90;;;;;;6242294;23;20028;-71
2023/09/09 02:25:17;;;;;;;14.32;10.10;;;18.20;99.90;;;;;;6242759;23;20100;-70
2023/09/09 02:27:42;;;;;;;13.65;11.82;;;18.20;99.90;;;;;;6215371;23;20108;-71
2023/09/09 02:30:08;;;;;;;14.15;10.90;;;18.20;99.90;;;;;;6242741;23;20020;-70
2023/09/09 02:32:34;;;;;;;17.45;11.18;;;18.10;99.90;;;;;;6215086;23;20360;-70
2023/09/09 02:35:00;;;;;;;15.75;10.57;;;18.00;99.90;;;;;;6242616;23;20016;-70
2023/09/09 02:37:26;;;;;;;14.50;11.15;;;18.10;99.90;;;;;;6241787;23;20027;-70
2023/09/09 02:39:53;;;;;;;13.25;11.30;;;18.10;99.90;;;;;;6241953;23;20179;-70
2023/09/09 02:42:23;;;;;;;15.70;12.07;;;18.10;99.90;;;;;;6242139;23;20012;-70
2023/09/09 02:44:50;;;;;;;12.25;9.63;;;18.10;99.90;;;;;;6242044;23;20012;-70
2023/09/09 02:47:16;;;;;;;9.40;6.93;;;18.00;99.90;;;;;;6242202;23;20070;-70
2023/09/09 02:49:45;;;;;;;7.35;6.25;;;18.00;99.90;;;;;;6189706;23;20442;-70
2023/09/09 02:52:11;;;;;;;8.23;5.93;;;17.90;99.90;;;;;;6241711;23;20016;-70
2023/09/09 02:54:38;;;;;;;8.50;6.72;;;17.90;99.90;;;;;;6242226;23;20031;-70
2023/09/09 02:57:04;;;;;;;9.52;7.80;;;17.90;99.90;;;;;;6241692;23;20127;-70
2023/09/09 02:59:34;;;;;;;10.70;8.48;;;17.90;99.90;;;;;;6242373;23;20348;-70
2023/09/09 03:02:00;;;;;;;11.40;8.68;;;17.90;99.90;;;;;;6214976;23;20319;-70
2023/09/09 03:04:26;;;;;;;12.50;9.82;;;17.90;99.90;;;;;;6241719;23;20345;-70
2023/09/09 03:06:52;;;;;;;15.00;10.85;;;17.90;99.90;;;;;;6214196;23;20031;-70
2023/09/09 03:09:17;;;;;;;15.57;12.23;;;17.80;99.90;;;;;;6241186;23;20094;-70
2023/09/09 03:11:43;;;;;;;15.70;11.98;;;17.80;99.90;;;;;;6241687;23;20115;-70
2023/09/09 03:14:09;;;;;;;18.40;13.40;;;17.90;99.90;;;;;;6214350;23;20024;-70
2023/09/09 03:16:36;;;;;;;17.33;13.73;;;17.90;99.90;;;;;;6214422;23;20047;-70
2023/09/09 03:19:02;;;;;;;22.58;13.98;;;17.90;99.90;;;;;;6214634;23;20024;-70
2023/09/09 03:21:28;;;;;;;20.75;15.25;;;17.90;99.90;;;;;;6213740;23;20016;-70
2023/09/09 03:23:54;;;;;;;19.15;14.77;;;17.80;99.90;;;;;;6241513;23;20024;-70
2023/09/09 03:26:22;;;;;;;21.48;15.20;;;17.80;99.90;;;;;;6214009;23;20129;-70
2023/09/09 03:28:49;;;;;;;20.38;15.57;;;17.80;99.90;;;;;;6241663;23;20028;-70
2023/09/09 03:31:15;;;;;;;23.00;16.67;;;17.80;99.90;;;;;;6241656;23;20020;-70
2023/09/09 03:33:40;;;;;;;19.92;14.70;;;17.80;99.90;;;;;;6241013;23;20089;-70
2023/09/09 03:36:07;;;;;;;17.55;13.10;;;17.70;99.90;;;;;;6240834;23;20024;-70
2023/09/09 03:38:33;;;;;;;13.45;11.25;;;17.60;99.90;;;;;;6214210;23;20062;-70
2023/09/09 03:40:59;;;;;;;14.25;11.88;;;17.60;99.90;;;;;;6241162;23;20028;-70
2023/09/09 03:43:25;;;;;;;16.13;11.73;;;17.60;99.90;;;;;;6241724;23;20134;-70
2023/09/09 03:45:57;;;;;;;15.45;12.18;;;17.60;99.90;;;;;;6241684;23;20103;-70
2023/09/09 03:48:25;;;;;;;;;;;17.50;99.90;;;;;;6215081;23;20024;-70
2023/09/09 03:50:56;;;;;;;13.95;12.25;;;17.50;99.90;;;;;;6214385;23;19970;-70
2023/09/09 03:53:21;;;;;;;16.42;13.38;;;17.60;99.90;;;;;;6214733;23;20247;-70
2023/09/09 03:55:47;;;;;;;18.48;14.32;;;17.50;99.90;;;;;;6215020;23;20526;-70
2023/09/09 03:58:13;;;;;;;17.25;14.25;;;17.60;99.90;;;;;;6241337;23;20020;-70
2023/09/09 04:00:38;;;;;;;18.65;15.35;;;17.50;99.90;;;;;;6241489;23;20024;-70
2023/09/09 04:03:04;;;;;;;19.05;14.95;;;17.50;99.90;;;;;;6241410;23;20398;-70
2023/09/09 04:05:30;;;;;;;18.17;15.70;;;17.50;99.90;;;;;;6241185;23;20012;-69
2023/09/09 04:07:58;;;;;;;19.90;14.77;;;17.50;99.90;;;;;;6240839;23;20012;-70
2023/09/09 04:10:24;;;;;;;20.20;16.60;;;17.50;99.90;;;;;;6240893;23;20024;-70
2023/09/09 04:12:49;;;;;;;18.73;14.98;;;17.50;99.90;;;;;;6240944;23;20070;-70
2023/09/09 04:15:15;;;;;;;17.33;15.07;;;17.40;99.90;;;;;;6240871;23;20012;-70
2023/09/09 04:17:41;;;;;;;19.77;15.57;;;17.40;99.90;;;;;;6241176;23;20341;-70
2023/09/09 04:20:10;;;;;;;19.48;15.23;;;17.40;99.90;;;;;;6240916;23;20083;-70
2023/09/09 04:22:36;;;;;;;19.67;15.55;;;17.40;99.90;;;;;;6241087;23;20074;-70
2023/09/09 04:25:01;;;;;;;20.48;15.88;;;17.30;99.90;;;;;;6213383;23;20029;-70
2023/09/09 04:27:27;;;;;;;19.60;16.08;;;17.30;99.90;;;;;;6241098;23;20020;-70
2023/09/09 04:29:53;;;;;;;19.50;15.35;;;17.30;99.90;;;;;;6240810;23;20025;-70
2023/09/09 04:32:18;;;;;;;21.27;15.40;;;17.30;99.90;;;;;;6213403;23;20103;-70
2023/09/09 04:34:44;;;;;;;19.65;14.73;;;17.20;99.90;;;;;;6213729;23;20105;-70
2023/09/09 04:37:10;;;;;;;19.30;14.90;;;17.20;99.90;;;;;;6241442;23;20119;-70
2023/09/09 04:39:35;;;;;;;16.02;13.40;;;17.20;99.90;;;;;;6243001;23;20034;-70
2023/09/09 04:42:01;;;;;;;16.67;14.02;;;17.10;99.90;;;;;;6243072;23;20311;-70
2023/09/09 04:44:27;;;;;;;16.23;12.38;;;17.10;99.90;;;;;;6242564;23;20024;-69
2023/09/09 04:46:53;;;;;;;18.98;14.23;;;17.10;99.90;;;;;;6242798;23;20063;-69
2023/09/09 04:49:18;;;;;;;21.10;15.00;;;17.10;99.90;;;;;;6243004;23;20051;-69
2023/09/09 04:51:44;;;;;;;18.85;13.90;;;17.10;99.90;;;;;;6216128;23;20330;-70
2023/09/09 04:54:10;;;;;;;19.05;15.15;;;17.10;99.90;;;;;;6242953;23;20087;-70
2023/09/09 04:56:36;;;;;;;19.83;14.50;;;17.10;99.90;;;;;;6243150;23;20027;-70
2023/09/09 04:59:01;;;;;;;18.63;14.50;;;17.20;99.90;;;;;;6243276;23;20510;-70
2023/09/09 05:01:27;;;;;;;19.65;14.55;;;17.20;99.90;;;;;;6215821;23;20445;-70
2023/09/09 05:03:53;;;;;;;20.30;14.15;;;17.20;99.90;;;;;;6242615;23;20023;-70
2023/09/09 05:06:18;;;;;;;21.63;17.02;;;17.20;99.90;;;;;;6243194;23;20742;-69
2023/09/09 05:08:45;;;;;;;20.83;16.02;;;17.20;99.90;;;;;;6215966;23;20047;-70
2023/09/09 05:11:11;;;;;;;20.90;15.68;;;17.20;99.90;;;;;;6216144;23;20024;-69
2023/09/09 05:13:37;;;;;;;22.52;16.30;;;17.10;99.90;;;;;;6215506;23;20028;-70
2023/09/09 05:16:02;;;;;;;15.27;12.02;;;17.10;99.90;;;;;;6242473;23;20024;-70
2023/09/09 05:18:28;;;;;;;19.88;12.65;;;17.10;99.90;;;;;;6242328;23;20012;-70
2023/09/09 05:20:54;;;;;;;14.60;12.27;;;17.00;99.90;;;;;;6242459;23;20055;-70
2023/09/09 05:23:20;;;;;;;15.85;12.13;;;17.00;99.90;;;;;;6242835;23;20016;-70
2023/09/09 05:25:45;;;;;;;14.77;12.30;;;17.00;99.90;;;;;;6241907;23;20024;-69
2023/09/09 05:28:11;;;;;;;18.38;14.35;;;17.10;99.90;;;;;;6242155;23;20082;-70
2023/09/09 05:30:40;;;;;;;18.83;13.90;;;17.10;99.90;;;;;;6242693;23;20024;-70
2023/09/09 05:33:06;;;;;;;17.55;13.40;;;17.10;99.90;;;;;;6241691;23;20082;-70
2023/09/09 05:35:32;;;;;;;20.60;15.10;;;17.20;99.90;;;;;;6215353;23;20066;-69
2023/09/09 05:37:58;;;;;;;18.55;14.40;;;17.20;99.90;;;;;;6215130;23;20028;-70
2023/09/09 05:40:23;;;;;;;20.25;14.60;;;17.30;99.90;;;;;;6242546;23;20019;-69
2023/09/09 05:42:49;;;;;;;19.48;15.05;;;17.40;99.90;;;;;;6242458;23;20352;-70
2023/09/09 05:45:15;;;;;;;19.15;15.27;;;17.40;99.90;;;;;;6215173;23;20035;-69
2023/09/09 05:47:42;;;;;;;22.67;15.73;;;17.50;99.90;;;;;;6241814;23;20020;-70
2023/09/09 05:50:08;;;;;;;22.90;17.13;;;17.60;99.90;;;;;;6242043;23;20150;-69
2023/09/09 05:52:34;;;;;;;25.58;19.30;;;17.60;99.90;;;;;;6242419;23;20332;-70
2023/09/09 05:54:59;;;;;;;29.52;21.33;;;17.70;99.90;;;;;;6242027;23;20016;-71
2023/09/09 05:57:25;;;;;;;33.38;22.63;;;17.70;99.90;;;;;;6242066;23;20016;-70
2023/09/09 05:59:51;;;;;;;34.45;23.50;;;17.80;99.90;;;;;;6242013;23;20016;-70
2023/09/09 06:02:17;;;;;;;38.75;26.23;;;17.90;99.90;;;;;;6241746;23;20031;-70
2023/09/09 06:04:42;;;;;;;33.10;24.48;;;17.90;99.90;;;;;;6215185;23;20099;-70
2023/09/09 06:07:09;;;;;;;30.38;24.00;;;18.00;99.90;;;;;;6242026;23;20028;-71
2023/09/09 06:09:34;;;;;;;36.22;25.23;;;18.00;99.90;;;;;;6241800;23;20020;-70
2023/09/09 06:12:01;;;;;;;35.97;25.48;;;18.10;99.90;;;;;;6214559;23;20357;-71
2023/09/09 06:14:27;;;;;;;37.28;27.27;;;18.20;99.90;;;;;;6242061;23;20023;-70
2023/09/09 06:16:53;;;;;;;42.17;28.67;;;18.30;99.90;;;;;;6214605;23;20392;-70
2023/09/09 06:19:18;;;;;;;38.33;28.23;;;18.40;99.90;;;;;;6242138;23;20024;-70
2023/09/09 06:21:44;;;;;;;41.78;30.35;;;18.50;99.90;;;;;;6241727;23;20353;-70
2023/09/09 06:24:12;;;;;;;38.47;28.58;;;18.60;99.90;;;;;;6215152;23;20036;-70
2023/09/09 06:26:38;;;;;;;39.42;29.17;;;18.60;99.90;;;;;;6214238;23;20020;-71
2023/09/09 06:29:04;;;;;;;36.85;28.50;;;18.70;99.90;;;;;;6241991;23;20341;-71
2023/09/09 06:31:30;;;;;;;38.90;28.27;;;18.70;99.90;;;;;;6241826;23;20020;-70
2023/09/09 06:33:56;;;;;;;38.65;28.80;;;18.80;99.90;;;;;;6241329;23;20020;-70
2023/09/09 06:36:22;;;;;;;43.83;29.73;;;18.90;99.90;;;;;;6241479;23;20031;-70
2023/09/09 06:38:49;;;;;;;39.85;29.20;;;19.00;99.90;;;;;;6241830;23;20012;-70
2023/09/09 06:41:15;;;;;;;43.35;28.42;;;19.10;99.90;;;;;;6241807;23;20020;-70
2023/09/09 06:43:42;;;;;;;37.22;27.92;;;19.10;99.90;;;;;;6241647;23;20020;-69
2023/09/09 06:46:08;;;;;;;38.58;28.13;;;19.10;99.90;;;;;;6189735;23;20016;-70
2023/09/09 06:48:34;;;;;;;42.92;29.75;;;19.20;99.90;;;;;;6241945;23;20344;-71
2023/09/09 06:50:59;;;;;;;39.13;28.40;;;19.20;99.90;;;;;;6241357;23;20020;-70
2023/09/09 06:53:25;;;;;;;35.85;26.35;;;19.20;99.90;;;;;;6214333;23;20020;-71
2023/09/09 06:55:51;;;;;;;37.63;26.33;;;19.40;99.90;;;;;;6241758;23;20012;-70
2023/09/09 06:58:17;;;;;;;34.88;26.23;;;19.40;99.90;;;;;;6241231;23;20348;-71
2023/09/09 07:00:48;;;;;;;36.05;26.13;;;19.50;99.90;;;;;;6214273;23;20052;-70
2023/09/09 07:03:14;;;;;;;38.93;26.00;;;19.60;99.90;;;;;;6189603;23;20387;-70
2023/09/09 07:05:40;;;;;;;40.70;28.27;;;19.70;99.90;;;;;;6215983;23;20020;-70
2023/09/09 07:08:05;;;;;;;38.90;27.88;;;19.70;99.90;;;;;;6214899;23;20062;-71
2023/09/09 07:10:31;;;;;;;40.72;28.80;;;19.80;99.90;;;;;;6242111;23;20061;-70
2023/09/09 07:12:57;;;;;;;44.38;28.92;;;19.90;99.90;;;;;;6241625;23;20059;-71
2023/09/09 07:15:22;;;;;;;39.67;28.17;;;20.00;99.90;;;;;;6214627;23;20020;-70
2023/09/09 07:17:48;;;;;;;46.15;30.73;;;20.00;99.90;;;;;;6241446;23;20012;-71
2023/09/09 07:20:15;;;;;;;41.20;29.17;;;20.10;99.90;;;;;;6241748;23;20016;-70
2023/09/09 07:22:41;;;;;;;43.47;33.08;;;20.30;99.90;;;;;;6214605;23;20400;-71
2023/09/09 07:25:07;;;;;;;46.63;33.42;;;20.30;99.90;;;;;;6241445;23;20020;-70
2023/09/09 07:27:33;;;;;;;45.85;34.35;;;20.40;99.90;;;;;;6214264;23;20016;-70
2023/09/09 07:29:59;;;;;;;49.42;33.60;;;20.40;99.90;;;;;;6241537;23;20043;-70
2023/09/09 07:32:25;;;;;;;47.72;33.03;;;20.40;99.90;;;;;;6189387;23;20032;-70
2023/09/09 07:34:51;;;;;;;46.08;32.63;;;20.40;99.90;;;;;;6241252;23;20032;-70
2023/09/09 07:37:17;;;;;;;45.38;32.05;;;20.50;99.90;;;;;;6241610;23;20020;-70
2023/09/09 07:39:52;;;;;;;45.03;32.35;;;20.40;99.90;;;;;;6214181;23;20035;-69
2023/09/09 07:42:18;;;;;;;46.10;31.13;;;20.50;99.90;;;;;;6214120;23;20022;-70
2023/09/09 07:44:44;;;;;;;37.25;26.83;;;20.60;99.90;;;;;;6214032;23;20060;-70
2023/09/09 07:47:11;;;;;;;41.22;28.23;;;20.50;99.90;;;;;;6214148;23;20411;-70
2023/09/09 07:49:37;;;;;;;41.25;28.65;;;20.50;99.90;;;;;;6241353;23;20016;-70
2023/09/09 07:52:03;;;;;;;36.63;28.02;;;20.60;99.90;;;;;;6241146;23;20106;-70
2023/09/09 07:54:30;;;;;;;38.72;28.23;;;20.60;99.90;;;;;;6214500;23;20092;-71
2023/09/09 07:56:56;;;;;;;42.53;29.70;;;20.60;99.90;;;;;;6213526;23;20352;-70
2023/09/09 07:59:22;;;;;;;42.35;29.17;;;20.60;99.90;;;;;;6241404;23;20083;-70
2023/09/09 08:01:47;;;;;;;41.88;29.60;;;20.60;99.90;;;;;;6240932;23;20070;-70
2023/09/09 08:04:14;;;;;;;39.67;30.15;;;20.80;99.90;;;;;;6241189;23;20015;-70
2023/09/09 08:06:39;;;;;;;37.88;28.30;;;20.80;99.90;;;;;;6214013;23;20030;-70
2023/09/09 08:09:06;;;;;;;40.67;28.85;;;20.80;99.90;;;;;;6240878;23;20020;-70
2023/09/09 08:11:31;;;;;;;42.58;29.50;;;20.80;99.90;;;;;;6240585;23;20012;-70
2023/09/09 08:13:57;;;;;;;41.05;30.77;;;20.80;99.90;;;;;;6214266;23;20348;-70
2023/09/09 08:16:23;;;;;;;41.55;30.08;;;20.80;99.90;;;;;;6241098;23;20460;-70
2023/09/09 08:18:49;;;;;;;44.50;32.40;;;20.90;99.90;;;;;;6241069;23;20020;-70
2023/09/09 08:21:15;;;;;;;44.42;31.45;;;21.00;99.90;;;;;;6241138;23;20020;-70
2023/09/09 08:23:41;;;;;;;41.83;30.13;;;21.00;99.90;;;;;;6241047;23;20050;-70
2023/09/09 08:26:07;;;;;;;42.67;30.30;;;21.00;99.90;;;;;;6240518;23;20020;-69
2023/09/09 08:28:33;;;;;;;42.05;30.33;;;21.10;99.90;;;;;;6240877;23;20086;-70
2023/09/09 08:30:59;;;;;;;46.40;31.27;;;21.20;99.90;;;;;;6241370;23;20023;-70
2023/09/09 08:33:25;;;;;;;39.67;30.52;;;21.40;99.90;;;;;;6213875;23;20024;-70
2023/09/09 08:35:52;;;;;;;45.33;33.47;;;21.40;99.90;;;;;;6213964;23;20013;-70
2023/09/09 08:38:17;;;;;;;46.05;33.05;;;21.40;99.90;;;;;;6241321;23;20020;-70
2023/09/09 08:41:06;;;;;;;47.72;32.90;;;21.60;99.90;;;;;;6241008;23;20039;-70
2023/09/09 08:43:47;;;;;;;43.90;32.00;;;21.60;99.90;;;;;;6240839;23;20012;-70
2023/09/09 08:46:14;;;;;;;46.08;33.40;;;21.70;99.90;;;;;;6240914;23;20345;-70
2023/09/09 08:48:44;;;;;;;47.28;34.13;;;21.70;99.90;;;;;;6213780;23;20012;-70
2023/09/09 08:51:17;;;;;;;45.40;32.58;;;21.90;99.90;;;;;;6240935;23;20016;-70
2023/09/09 08:53:44;;;;;;;46.70;33.00;;;21.90;99.90;;;;;;6213742;23;20099;-70
2023/09/09 08:56:13;;;;;;;44.30;32.50;;;21.90;99.90;;;;;;6240763;23;20027;-70
2023/09/09 08:58:42;;;;;;;48.63;34.67;;;21.90;99.90;;;;;;6213470;23;20024;-70
2023/09/09 09:01:08;;;;;;;45.45;34.28;;;22.10;99.90;;;;;;6241152;23;20024;-70
2023/09/09 09:03:34;;;;;;;43.70;31.65;;;22.10;99.90;;;;;;6240559;23;20020;-70
2023/09/09 09:06:06;;;;;;;45.92;32.85;;;22.20;99.90;;;;;;6240753;23;20027;-70
2023/09/09 09:08:33;;;;;;;46.05;33.58;;;22.30;99.90;;;;;;6213503;23;20051;-70
2023/09/09 09:11:01;;;;;;;43.33;31.63;;;22.40;99.90;;;;;;6213525;23;20082;-70
2023/09/09 09:13:31;;;;;;;45.63;32.55;;;22.40;99.90;;;;;;6213582;23;20058;-71
2023/09/09 09:15:57;;;;;;;58.63;34.28;;;22.50;99.90;;;;;;6213731;23;20028;-71
2023/09/09 09:18:23;;;;;;;45.15;32.42;;;22.70;99.90;;;;;;6240802;23;20409;-71
2023/09/09 09:20:49;;;;;;;57.63;33.45;;;22.90;99.90;;;;;;6240832;23;20043;-70
2023/09/09 09:23:15;;;;;;;48.70;33.78;;;23.00;99.90;;;;;;6241014;23;20023;-71
2023/09/09 09:25:44;;;;;;;49.75;35.55;;;23.00;99.90;;;;;;6242223;23;20074;-70
2023/09/09 09:28:11;;;;;;;52.95;35.53;;;23.00;99.90;;;;;;6242247;23;20032;-71
2023/09/09 09:30:37;;;;;;;42.92;32.97;;;22.90;99.90;;;;;;6242718;23;20016;-70
2023/09/09 09:33:03;;;;;;;50.85;33.35;;;23.00;99.90;;;;;;6242252;23;20513;-70
2023/09/09 09:35:30;;;;;;;47.83;32.15;;;23.10;99.90;;;;;;6242704;23;20012;-70
2023/09/09 09:38:06;;;;;;;48.08;32.78;;;23.00;99.90;;;;;;6242148;23;20024;-71
2023/09/09 09:40:32;;;;;;;42.97;32.22;;;23.20;99.90;;;;;;6242826;23;20027;-70
2023/09/09 09:42:58;;;;;;;46.13;33.08;;;23.20;99.90;;;;;;6242255;23;20460;-70
2023/09/09 09:45:28;;;;;;;44.30;32.92;;;23.20;99.90;;;;;;6242545;23;20020;-70
2023/09/09 09:47:56;;;;;;;41.22;30.65;;;23.30;99.90;;;;;;6215286;23;20031;-71
2023/09/09 09:50:22;;;;;;;42.88;31.65;;;23.60;99.90;;;;;;6242325;23;20605;-71
2023/09/09 09:53:08;;;;;;;41.25;31.27;;;23.50;99.90;;;;;;6215530;23;20016;-71
2023/09/09 09:55:36;;;;;;;43.70;30.52;;;23.60;99.90;;;;;;6243173;23;20008;-70
2023/09/09 09:58:02;;;;;;;42.90;29.55;;;23.60;99.90;;;;;;6215624;23;20344;-70
2023/09/09 10:00:29;;;;;;;38.10;28.38;;;23.60;99.90;;;;;;6242698;23;20073;-70
2023/09/09 10:03:00;;;;;;;43.65;31.25;;;23.60;99.90;;;;;;6242771;23;20055;-71
2023/09/09 10:05:27;;;;;;;43.05;30.75;;;23.70;99.90;;;;;;6242491;23;20444;-71
2023/09/09 10:08:31;;;;;;;44.38;30.80;;;23.90;99.90;;;;;;6215099;23;20028;-71
2023/09/09 10:11:07;;;;;;;38.28;28.52;;;23.90;99.90;;;;;;6242393;23;20027;-70
2023/09/09 10:13:48;;;;;;;41.22;27.80;;;23.90;99.90;;;;;;6242182;23;20020;-70
2023/09/09 10:16:16;;;;;;;37.72;28.52;;;24.00;99.90;;;;;;6214862;23;20027;-71
2023/09/09 10:18:44;;;;;;;39.90;30.73;;;24.00;99.90;;;;;;6242198;23;20461;-70
2023/09/09 10:21:12;;;;;;;41.17;28.92;;;23.90;99.90;;;;;;6214825;23;20020;-70
2023/09/09 10:23:39;;;;;;;39.75;28.80;;;24.10;99.90;;;;;;6241890;23;20071;-70
2023/09/09 10:26:06;;;;;;;40.28;29.52;;;24.20;99.90;;;;;;6241606;23;20019;-70
2023/09/09 10:28:33;;;;;;;42.88;32.33;;;24.30;99.90;;;;;;6242068;23;20093;-70
2023/09/09 10:30:59;;;;;;;43.28;30.42;;;24.30;99.90;;;;;;6241836;23;20051;-70
2023/09/09 10:33:28;;;;;;;36.85;27.52;;;24.30;99.90;;;;;;6241365;23;20453;-71
2023/09/09 10:35:55;;;;;;;36.85;26.08;;;24.30;99.90;;;;;;6241342;23;20040;-70
2023/09/09 10:38:23;;;;;;;39.28;29.02;;;24.30;99.90;;;;;;6241560;23;20048;-70
2023/09/09 10:40:50;;;;;;;38.78;27.48;;;24.30;99.90;;;;;;6189638;23;20348;-70
2023/09/09 10:43:15;;;;;;;35.22;26.65;;;24.40;99.90;;;;;;6242135;23;20395;-70
2023/09/09 10:45:43;;;;;;;39.75;30.27;;;24.40;99.90;;;;;;6242059;23;20008;-70
2023/09/09 10:48:12;;;;;;;38.30;27.92;;;24.40;99.90;;;;;;6241759;23;20027;-70
2023/09/09 10:50:44;;;;;;;35.60;26.85;;;24.50;99.90;;;;;;6241721;23;20030;-70
2023/09/09 10:53:26;;;;;;;41.45;27.80;;;24.70;99.90;;;;;;6241480;23;20023;-70
2023/09/09 10:55:53;;;;;;;;;;;24.60;99.90;;;;;;6242305;23;20063;-70
2023/09/09 10:58:20;;;;;;;37.70;27.38;;;24.60;99.90;;;;;;6242238;23;19925;-70
2023/09/09 11:00:51;;;;;;;40.17;29.35;;;24.70;99.90;;;;;;6242348;23;20054;-70
2023/09/09 11:03:22;;;;;;;37.25;25.23;;;24.80;99.90;;;;;;6241504;23;20062;-70
2023/09/09 11:06:00;;;;;;;39.47;24.42;;;24.80;99.90;;;;;;6241564;23;20128;-70
2023/09/09 11:08:41;;;;;;;37.15;25.92;;;24.80;99.90;;;;;;6241656;23;20074;-70
2023/09/09 11:11:08;;;;;;;33.78;22.92;;;24.90;99.90;;;;;;6241833;23;20649;-70
2023/09/09 11:13:44;;;;;;;32.85;22.77;;;25.10;99.90;;;;;;6241395;23;20034;-70
2023/09/09 11:16:28;;;;;;;27.38;18.80;;;25.10;99.90;;;;;;6214220;23;20020;-70
2023/09/09 11:18:56;;;;;;;29.98;18.92;;;25.20;99.90;;;;;;6241572;23;20030;-71
2023/09/09 11:21:22;;;;;;;26.98;21.10;;;25.50;99.90;;;;;;6241358;23;20020;-70
2023/09/09 11:23:50;;;;;;;28.20;19.98;;;25.30;99.90;;;;;;6189270;23;20024;-71
2023/09/09 11:26:16;;;;;;;25.83;17.88;;;25.50;99.90;;;;;;6214059;23;20095;-70
2023/09/09 11:28:45;;;;;;;26.25;17.67;;;25.50;99.90;;;;;;6241108;23;20174;-71
2023/09/09 11:31:12;;;;;;;21.88;15.10;;;25.50;99.90;;;;;;6241262;23;20024;-70
2023/09/09 11:33:38;;;;;;;26.70;17.15;;;25.50;99.90;;;;;;6213685;23;20029;-70
2023/09/09 11:36:04;;;;;;;31.63;19.40;;;25.40;99.90;;;;;;6241016;23;20012;-70
2023/09/09 11:38:33;;;;;;;19.15;14.88;;;25.50;99.90;;;;;;6241332;23;20016;-70
2023/09/09 11:40:59;;;;;;;22.88;15.27;;;25.40;99.90;;;;;;6214333;23;20024;-70
2023/09/09 11:43:25;;;;;;;21.88;14.57;;;25.50;99.90;;;;;;6241163;23;20078;-70
2023/09/09 11:45:52;;;;;;;27.45;14.70;;;25.50;99.90;;;;;;6241318;23;20024;-70
2023/09/09 11:48:18;;;;;;;22.70;15.05;;;25.60;99.90;;;;;;6241108;23;20383;-71
2023/09/09 11:50:45;;;;;;;24.05;15.32;;;25.60;99.90;;;;;;6241378;23;20024;-70
2023/09/09 11:53:12;;;;;;;21.20;15.13;;;25.60;99.90;;;;;;6241374;23;20023;-70
2023/09/09 11:55:38;;;;;;;17.17;13.25;;;25.70;99.90;;;;;;6214533;23;20023;-70
2023/09/09 11:58:05;;;;;;;24.15;13.65;;;25.70;99.90;;;;;;6241388;23;20020;-71
2023/09/09 12:00:31;;;;;;;16.95;13.00;;;25.70;99.90;;;;;;6214398;23;20023;-70
2023/09/09 12:02:57;;;;;;;20.40;13.48;;;25.80;99.90;;;;;;6241239;23;20050;-71
2023/09/09 12:05:31;;;;;;;22.08;15.25;;;25.80;99.90;;;;;;6214338;23;20453;-70
2023/09/09 12:08:01;;;;;;;17.85;12.93;;;25.70;99.90;;;;;;6214181;23;20051;-71
2023/09/09 12:10:35;;;;;;;17.98;12.35;;;25.70;99.90;;;;;;6214018;23;20066;-70
2023/09/09 12:13:01;;;;;;;14.70;12.18;;;25.70;99.90;;;;;;6214127;23;20425;-71
2023/09/09 12:15:27;;;;;;;25.45;12.77;;;25.80;99.90;;;;;;6241413;23;20020;-71
2023/09/09 12:17:53;;;;;;;16.55;11.50;;;25.80;99.90;;;;;;6214027;23;20032;-70
2023/09/09 12:20:18;;;;;;;19.65;12.90;;;25.90;99.90;;;;;;6241358;23;20513;-70
2023/09/09 12:22:47;;;;;;;21.15;12.30;;;25.90;99.90;;;;;;6241377;23;20838;-70
2023/09/09 12:25:34;;;;;;;14.13;11.85;;;25.90;99.90;;;;;;6188726;23;20020;-70
2023/09/09 12:28:01;;;;;;;18.63;11.18;;;25.90;99.90;;;;;;6241017;23;20012;-71